Enid, OK (73701)

12:32 PM CDT on September 27, 2016 (GMT -0500)
Willow Run | | Change Station

Elev 1268 ft 36.42 °N, 97.90 °W | Updated 1 second ago

Clear
Clear
75.3 °F
Feels Like 78 °F
N
3.0
Wind Variable Wind from SSE
Gusts 7.0 mph

Today
High -- | Low -- °F
--% Chance of Precip.
Yesterday
High -- | Low -- °F
Precip. -- in
Pressure 30.09 in
Visibility 10.0 miles
Clouds Clear
Heat Index 78 °F
Dew Point 53 °F
Humidity 46%
Rainfall 0.00 in
Snow Depth Not available.
7:23 AM 7:20 PM
Waning Crescent, 10% visible
METAR KWDG 271650Z 22006KT 10SM SKC 25/11 A3009
Pressure 30.09 in
Visibility 10.0 miles
Clouds Clear
Heat Index 78 °F
Dew Point 53 °F
Humidity 46%
Rainfall 0.00 in
Snow Depth Not available.
7:23 AM 7:20 PM
Waning Crescent, 10% visible
METAR KWDG 271650Z 22006KT 10SM SKC 25/11 A3009

10-Day Weather Forecast

Almanac

Astronomy

Sep. 27, 2016 Rise Set
Actual Time
Civil Twilight
Nautical Twilight
Astronomical Twilight
Moon
Length of Visible Light
Length of Day
Tomorrow will be .
, % of the Moon is Illuminated

Today's Extremes

State Highs State Lows

Community

WunderPhotos

Upload Photos

1,942,135 photos uploaded!

WunderBlog® & News

Nearby

Air Quality

  Air Quality AQ Index Pollutant
Not available.

Snow Depth

Station Depth Elevation

Earthquake Activity

City Distance Mag. Time & Date
Minimum magnitude displayed is 2.5.

Coastal Water Temperatures

Place Temperature

Stations

Nearby Weather Stations

Station Location Temp. Windchill Dew Point Humidity Wind Precip. Elev Updated Type
                   

Watches & Warnings

There are currently no watches in effect.